Time;durP1;ratioP1;P1;durP2;ratioP2;P2;SDS_P1;SDS_P2;PMS_P1;PMS_P2;Temp;Humidity;BMP_temperature;BMP_pressure;BME280_temperature;BME280_humidity;BME280_pressure;Samples;Min_cycle;Max_cycle;Signal;HPM_P1;HPM_P2
2022/05/01 20:25:53;;;;;;;;;;;;;;;;;;5059128;28;20753;-85
2022/05/01 20:29:05;;;;;;;9.98;6.40;;;;;;;;;;5055826;28;19927;-85
2022/05/01 20:32:55;;;;;;;17.50;10.45;;;;;;;;;;5009922;28;20561;-85
2022/05/01 20:37:31;;;;;;;23.27;13.50;;;;;;;;;;5013404;28;20666;-85
2022/05/01 21:04:47;;;;;;;13.73;6.53;;;;;;;;;;4868882;29;20144;-86
2022/05/01 21:13:20;;;;;;;12.07;5.70;;;;;;;;;;4899852;29;20040;-83
2022/05/01 21:15:48;;;;;;;12.95;6.00;;;;;;;;;;4923850;29;20419;-83
2022/05/01 21:18:19;;;;;;;11.95;5.55;;;;;;;;;;4922467;29;20063;-84
2022/05/01 21:20:46;;;;;;;8.20;4.97;;;;;;;;;;4929714;29;20065;-84
2022/05/01 21:23:22;;;;;;;9.68;4.22;;;;;;;;;;4902501;29;20059;-84
2022/05/01 21:26:45;;;;;;;5.18;2.80;;;;;;;;;;4922052;29;20135;-85
2022/05/01 21:34:14;;;;;;;7.72;3.72;;;;;;;;;;4854076;29;20551;-85
2022/05/01 21:38:19;;;;;;;7.43;3.10;;;;;;;;;;4802124;29;20483;-86
2022/05/01 21:43:09;;;;;;;6.18;2.78;;;;;;;;;;4832005;29;20045;-86
2022/05/01 21:51:40;;;;;;;5.05;2.78;;;;;;;;;;4781869;29;20065;-84
2022/05/01 21:54:22;;;;;;;5.20;2.65;;;;;;;;;;4798238;29;20058;-82
2022/05/01 21:56:50;;;;;;;7.68;2.95;;;;;;;;;;4799180;29;20073;-83
2022/05/01 21:59:25;;;;;;;6.22;3.13;;;;;;;;;;4800478;29;20063;-84
2022/05/01 22:01:53;;;;;;;5.55;2.85;;;;;;;;;;4814872;29;20058;-83
2022/05/01 22:04:24;;;;;;;8.27;3.13;;;;;;;;;;4825951;29;20385;-83
2022/05/01 22:06:54;;;;;;;5.03;3.00;;;;;;;;;;4834635;29;20064;-83
2022/05/01 22:09:23;;;;;;;5.57;2.78;;;;;;;;;;4835683;29;20550;-83
2022/05/01 22:11:50;;;;;;;5.03;2.72;;;;;;;;;;4834494;29;20064;-82
2022/05/01 22:14:18;;;;;;;7.25;2.80;;;;;;;;;;4832572;29;20061;-83
2022/05/01 22:16:46;;;;;;;6.40;3.08;;;;;;;;;;4842744;29;20503;-84
2022/05/01 22:19:28;;;;;;;6.15;3.55;;;;;;;;;;4888569;29;20513;-84
2022/05/01 22:21:56;;;;;;;7.72;3.30;;;;;;;;;;4889361;29;20072;-84
2022/05/01 22:24:32;;;;;;;8.00;3.15;;;;;;;;;;4926096;28;20052;-82
2022/05/01 22:27:00;;;;;;;5.65;2.50;;;;;;;;;;4990221;28;20481;-82
2022/05/01 22:29:28;;;;;;;4.85;2.55;;;;;;;;;;5062911;28;20056;-83
2022/05/01 22:31:56;;;;;;;4.43;2.45;;;;;;;;;;5063120;28;20076;-83
2022/05/01 22:34:25;;;;;;;3.97;2.20;;;;;;;;;;5043094;28;20123;-83
2022/05/01 22:39:40;;;;;;;7.07;2.70;;;;;;;;;;5046387;28;20135;-83
2022/05/01 22:42:09;;;;;;;4.28;2.30;;;;;;;;;;5060463;28;20565;-84
2022/05/01 22:44:50;;;;;;;5.75;2.40;;;;;;;;;;5041523;28;20052;-85
2022/05/01 22:47:32;;;;;;;4.30;2.60;;;;;;;;;;5047797;28;20064;-84
2022/05/01 22:51:00;;;;;;;4.57;2.42;;;;;;;;;;5009938;28;20132;-84
2022/05/01 22:53:36;;;;;;;9.43;2.58;;;;;;;;;;5019150;28;20053;-82
2022/05/01 22:56:04;;;;;;;6.50;2.40;;;;;;;;;;5020251;28;20052;-83
2022/05/01 22:58:54;;;;;;;6.45;2.50;;;;;;;;;;5025828;28;20053;-84
2022/05/01 23:01:26;;;;;;;4.20;2.15;;;;;;;;;;4993055;28;20060;-84
2022/05/01 23:03:56;;;;;;;5.50;2.55;;;;;;;;;;5017916;28;20550;-84
2022/05/01 23:06:30;;;;;;;6.00;2.38;;;;;;;;;;4978359;28;20048;-84
2022/05/01 23:09:03;;;;;;;3.78;2.00;;;;;;;;;;5017179;28;20053;-84
2022/05/01 23:11:46;;;;;;;5.00;2.63;;;;;;;;;;5017935;28;20118;-84
2022/05/01 23:14:28;;;;;;;6.07;2.90;;;;;;;;;;5018505;28;20087;-81
2022/05/01 23:17:10;;;;;;;5.50;2.65;;;;;;;;;;5000468;28;20061;-82
2022/05/01 23:19:40;;;;;;;9.73;2.70;;;;;;;;;;5017978;28;20053;-81
2022/05/01 23:22:08;;;;;;;4.57;2.35;;;;;;;;;;5015643;28;20068;-82
2022/05/01 23:24:36;;;;;;;5.32;2.65;;;;;;;;;;5018705;28;20158;-82
2022/05/01 23:27:05;;;;;;;6.13;3.38;;;;;;;;;;5025804;28;20134;-83
2022/05/01 23:32:33;;;;;;;6.78;2.50;;;;;;;;;;5055334;28;20052;-83
2022/05/01 23:35:45;;;;;;;5.65;2.53;;;;;;;;;;5054809;28;20044;-85
